createdAt,value
2019-04-30T00:01:48.541Z,62.40
2019-04-30T00:04:17.311Z,61.80
2019-04-30T00:06:46.038Z,63.00
2019-04-30T00:09:19.061Z,63.30
2019-04-30T00:11:50.571Z,63.50
2019-04-30T00:14:17.605Z,62.50
2019-04-30T00:16:46.402Z,64.10
2019-04-30T00:19:19.168Z,63.60
2019-04-30T00:21:48.266Z,63.60
2019-04-30T00:24:16.037Z,62.10
2019-04-30T00:26:51.847Z,62.40
2019-04-30T00:29:19.093Z,61.20
2019-04-30T00:31:47.156Z,62.00
2019-04-30T00:34:17.536Z,60.90
2019-04-30T00:36:46.103Z,60.40
2019-04-30T00:39:16.690Z,59.70
2019-04-30T00:41:47.371Z,59.60
2019-04-30T00:44:19.862Z,62.00
2019-04-30T00:46:48.015Z,62.50
2019-04-30T00:49:22.950Z,63.50
2019-04-30T00:51:49.860Z,62.70
2019-04-30T00:54:17.664Z,63.10
2019-04-30T00:56:46.471Z,63.90
2019-04-30T00:59:15.569Z,64.10
2019-04-30T01:01:48.131Z,65.60
2019-04-30T01:04:24.502Z,65.40
2019-04-30T01:06:51.103Z,65.50
2019-04-30T01:09:19.746Z,65.70
2019-04-30T01:11:48.512Z,65.30
2019-04-30T01:14:18.730Z,65.60
2019-04-30T01:16:49.268Z,64.70
2019-04-30T01:19:29.127Z,63.40
2019-04-30T01:21:50.454Z,63.30
2019-04-30T01:24:19.073Z,64.90
2019-04-30T01:26:48.615Z,64.90
2019-04-30T01:29:19.235Z,64.50
2019-04-30T01:31:48.859Z,64.50
2019-04-30T01:34:19.640Z,64.90
2019-04-30T01:37:01.124Z,65.20
2019-04-30T01:39:31.586Z,66.30
2019-04-30T01:42:02.957Z,65.90
2019-04-30T01:44:30.522Z,66.00
2019-04-30T01:46:59.208Z,64.70
2019-04-30T01:49:30.051Z,63.60
2019-04-30T01:52:00.484Z,64.60
2019-04-30T01:54:29.117Z,64.40
2019-04-30T01:57:15.797Z,64.30
2019-04-30T02:00:02.749Z,64.10
2019-04-30T02:02:36.212Z,64.90
2019-04-30T02:05:06.572Z,65.40
2019-04-30T02:07:35.285Z,66.50
2019-04-30T02:10:04.991Z,66.30
2019-04-30T02:12:33.605Z,66.10
2019-04-30T02:15:02.239Z,66.00
2019-04-30T02:17:30.871Z,66.10
2019-04-30T02:19:59.540Z,66.40
2019-04-30T02:22:30.902Z,66.90
2019-04-30T02:24:58.713Z,66.80
2019-04-30T02:27:29.472Z,66.40
2019-04-30T02:30:01.877Z,66.60
2019-04-30T02:32:30.376Z,67.70
2019-04-30T02:35:00.334Z,67.60
2019-04-30T02:37:30.681Z,68.80
2019-04-30T02:40:00.846Z,68.90
2019-04-30T02:42:30.157Z,70.10
2019-04-30T02:45:03.408Z,71.80
2019-04-30T02:47:33.106Z,71.40
2019-04-30T02:50:15.290Z,73.00
2019-04-30T02:52:35.292Z,74.80
2019-04-30T02:55:05.598Z,76.00
2019-04-30T02:57:34.238Z,75.30
2019-04-30T03:00:14.020Z,75.90
2019-04-30T03:02:42.738Z,74.70
2019-04-30T03:05:13.553Z,75.10
2019-04-30T03:07:42.162Z,76.90
2019-04-30T03:10:10.947Z,77.40
2019-04-30T03:12:40.581Z,76.60
2019-04-30T03:15:10.133Z,78.30
2019-04-30T03:17:46.380Z,79.70
2019-04-30T03:20:36.039Z,80.90
2019-04-30T03:23:02.417Z,81.00
2019-04-30T03:25:31.243Z,81.80
2019-04-30T03:28:00.440Z,83.10
2019-04-30T03:30:31.827Z,84.80
2019-04-30T03:33:02.638Z,84.40
2019-04-30T03:35:32.336Z,84.70
2019-04-30T03:38:00.287Z,86.00
2019-04-30T03:40:30.171Z,85.70
2019-04-30T03:43:02.682Z,84.20
2019-04-30T03:45:30.176Z,84.50
2019-04-30T03:48:00.258Z,85.20
2019-04-30T03:50:41.531Z,85.20
2019-04-30T03:53:00.433Z,85.00
2019-04-30T03:55:29.952Z,85.40
2019-04-30T03:58:00.191Z,85.10
2019-04-30T04:00:33.562Z,82.90
2019-04-30T04:03:02.198Z,80.60
2019-04-30T04:05:32.479Z,82.20
2019-04-30T04:08:05.994Z,81.20
2019-04-30T04:10:42.257Z,80.20
2019-04-30T04:13:10.861Z,79.00
2019-04-30T04:15:40.079Z,81.00
2019-04-30T04:18:10.635Z,81.60
2019-04-30T04:20:39.536Z,80.40
2019-04-30T04:23:09.740Z,80.30
2019-04-30T04:25:39.962Z,79.70
2019-04-30T04:28:10.048Z,81.70
2019-04-30T04:30:39.760Z,80.80
2019-04-30T04:33:10.215Z,81.80
2019-04-30T04:35:39.383Z,81.20
2019-04-30T04:38:12.239Z,81.70
2019-04-30T04:40:40.055Z,80.50
2019-04-30T04:43:10.448Z,80.50
2019-04-30T04:45:40.458Z,80.50
2019-04-30T04:48:09.800Z,81.20
2019-04-30T04:50:39.957Z,82.40
2019-04-30T04:53:11.410Z,82.00
2019-04-30T04:55:40.065Z,81.30
2019-04-30T04:58:30.282Z,79.50
2019-04-30T05:00:59.234Z,79.40
2019-04-30T05:03:30.025Z,81.00
2019-04-30T05:06:02.305Z,81.20
2019-04-30T05:08:29.171Z,83.00
2019-04-30T05:10:59.403Z,81.90
2019-04-30T05:13:29.042Z,81.20
2019-04-30T05:15:59.426Z,80.40
2019-04-30T05:18:29.115Z,80.10
2019-04-30T05:20:59.024Z,81.30
2019-04-30T05:23:29.809Z,81.70
2019-04-30T05:25:58.951Z,79.90
2019-04-30T05:28:29.968Z,81.00
2019-04-30T05:30:59.396Z,79.70
2019-04-30T05:33:28.652Z,79.90
2019-04-30T05:35:59.270Z,79.50
2019-04-30T05:38:28.685Z,77.90
2019-04-30T05:40:59.580Z,77.60
2019-04-30T05:43:28.950Z,77.20
2019-04-30T05:45:58.663Z,76.40
2019-04-30T05:48:28.579Z,75.40
2019-04-30T05:50:59.097Z,75.60
2019-04-30T05:53:28.662Z,75.20
2019-04-30T05:55:59.361Z,76.50
2019-04-30T05:58:30.038Z,76.30
2019-04-30T06:00:59.735Z,76.60
2019-04-30T06:03:33.056Z,74.10
2019-04-30T06:05:59.310Z,76.00
2019-04-30T06:08:32.384Z,76.60
2019-04-30T06:11:02.732Z,76.40
2019-04-30T06:13:40.366Z,75.50
2019-04-30T06:16:14.055Z,75.10
2019-04-30T06:18:42.763Z,75.00
2019-04-30T06:21:11.501Z,74.30
2019-04-30T06:23:40.280Z,73.40
2019-04-30T06:26:12.211Z,73.90
2019-04-30T06:28:41.598Z,74.20
2019-04-30T06:31:10.188Z,75.90
2019-04-30T06:33:39.079Z,72.90
2019-04-30T06:36:08.603Z,74.30
2019-04-30T06:38:38.760Z,78.40
2019-04-30T06:41:08.710Z,78.70
2019-04-30T06:43:38.668Z,76.10
2019-04-30T06:46:08.834Z,75.50
2019-04-30T06:48:39.251Z,74.80
2019-04-30T06:54:13.883Z,73.10
2019-04-30T06:56:42.499Z,78.90
2019-04-30T06:59:11.133Z,79.20
2019-04-30T07:01:39.832Z,78.40
2019-04-30T07:04:10.381Z,75.90
2019-04-30T07:06:46.024Z,74.80
2019-04-30T07:09:36.371Z,73.00
2019-04-30T07:12:27.253Z,73.90
2019-04-30T07:14:52.082Z,73.70
2019-04-30T07:17:22.306Z,75.10
2019-04-30T07:19:56.531Z,72.80
2019-04-30T07:22:36.544Z,72.60
2019-04-30T07:24:51.710Z,71.70
2019-04-30T07:27:23.874Z,71.40
2019-04-30T07:30:10.375Z,72.40
2019-04-30T07:32:39.037Z,72.00
2019-04-30T07:35:09.504Z,72.90
2019-04-30T07:37:39.216Z,70.50
2019-04-30T07:40:09.393Z,71.70
2019-04-30T07:42:44.486Z,71.90
2019-04-30T07:45:09.649Z,74.60
2019-04-30T07:47:39.612Z,73.70
2019-04-30T07:50:10.633Z,75.20
2019-04-30T07:52:57.483Z,72.70
2019-04-30T07:55:09.854Z,73.10
2019-04-30T07:57:40.321Z,72.00
2019-04-30T08:00:10.233Z,73.50
2019-04-30T08:02:43.542Z,71.70
2019-04-30T08:05:13.032Z,70.70
2019-04-30T08:07:41.739Z,71.00
2019-04-30T08:10:10.641Z,71.00
2019-04-30T08:12:43.152Z,68.70
2019-04-30T08:15:09.758Z,69.10
2019-04-30T08:17:38.993Z,67.70
2019-04-30T08:20:08.760Z,68.60
2019-04-30T08:22:40.838Z,65.80
2019-04-30T08:25:09.747Z,66.80
2019-04-30T08:27:39.310Z,66.30
2019-04-30T08:30:21.265Z,64.20
2019-04-30T08:32:39.492Z,66.70
2019-04-30T08:35:09.934Z,66.50
2019-04-30T08:37:38.725Z,63.50
2019-04-30T08:40:08.688Z,63.60
2019-04-30T08:42:39.755Z,61.80
2019-04-30T08:45:09.541Z,62.00
2019-04-30T08:47:39.242Z,62.10
2019-04-30T08:50:09.797Z,61.60
2019-04-30T08:52:39.441Z,62.90
2019-04-30T08:55:16.085Z,64.00
2019-04-30T08:57:39.605Z,63.90
2019-04-30T09:00:09.221Z,63.80
2019-04-30T09:02:39.112Z,62.80
2019-04-30T09:05:22.150Z,62.10
2019-04-30T09:07:50.816Z,60.50
2019-04-30T09:10:19.535Z,61.40
2019-04-30T09:12:49.533Z,61.20
2019-04-30T09:15:18.995Z,59.30
2019-04-30T09:17:58.941Z,57.40
2019-04-30T09:20:19.409Z,58.30
2019-04-30T09:25:19.463Z,55.80
2019-04-30T09:27:48.875Z,56.10
2019-04-30T09:30:18.798Z,55.60
2019-04-30T09:32:49.846Z,54.60
2019-04-30T09:35:19.619Z,55.60
2019-04-30T09:37:49.599Z,55.80
2019-04-30T09:40:21.104Z,57.70
2019-04-30T09:42:49.109Z,56.20
2019-04-30T09:45:18.707Z,54.80
2019-04-30T09:47:47.699Z,56.10
2019-04-30T09:50:16.536Z,55.80
2019-04-30T09:52:45.417Z,56.20
2019-04-30T09:55:15.019Z,56.10
2019-04-30T09:57:43.846Z,56.40
2019-04-30T10:00:13.894Z,57.30
2019-04-30T10:02:42.628Z,55.80
2019-04-30T10:05:12.548Z,55.50
2019-04-30T10:07:41.839Z,54.80
2019-04-30T10:10:12.927Z,54.50
2019-04-30T10:12:41.651Z,55.20
2019-04-30T10:15:12.444Z,56.00
2019-04-30T10:17:42.779Z,56.20
2019-04-30T10:20:13.173Z,54.70
2019-04-30T10:22:41.887Z,54.90
2019-04-30T10:25:11.134Z,54.00
2019-04-30T10:27:39.961Z,52.90
2019-04-30T10:30:10.346Z,52.50
2019-04-30T10:32:39.170Z,52.50
2019-04-30T10:35:08.156Z,51.10
2019-04-30T10:37:38.619Z,51.80
2019-04-30T10:40:10.526Z,50.80
2019-04-30T10:42:58.733Z,50.00
2019-04-30T10:45:28.791Z,49.10
2019-04-30T10:47:59.248Z,50.00
2019-04-30T10:50:28.078Z,49.60
2019-04-30T10:52:56.794Z,52.60
2019-04-30T10:55:25.881Z,55.00
2019-04-30T10:57:54.618Z,53.10
2019-04-30T11:00:38.969Z,52.30
2019-04-30T11:03:19.243Z,52.00
2019-04-30T11:05:41.040Z,53.50
2019-04-30T11:08:09.293Z,53.80
2019-04-30T11:10:39.900Z,53.20
2019-04-30T11:13:08.719Z,51.60
2019-04-30T11:15:39.269Z,49.90
2019-04-30T11:18:07.879Z,50.40
2019-04-30T11:20:36.709Z,51.30
2019-04-30T11:23:14.098Z,49.30
2019-04-30T11:25:37.267Z,50.50
2019-04-30T11:28:07.063Z,52.20
2019-04-30T11:30:37.361Z,53.60
2019-04-30T11:33:07.279Z,53.20
2019-04-30T11:35:36.017Z,52.40
2019-04-30T11:38:05.119Z,52.10
2019-04-30T11:40:37.305Z,51.80
2019-04-30T11:43:04.383Z,50.70
2019-04-30T11:45:52.907Z,50.10
2019-04-30T11:48:21.531Z,49.30
2019-04-30T11:50:50.229Z,50.70
2019-04-30T11:53:25.272Z,49.10
2019-04-30T11:55:49.494Z,48.60
2019-04-30T11:58:21.768Z,47.00
2019-04-30T12:00:49.466Z,47.70
2019-04-30T12:03:19.207Z,47.60
2019-04-30T12:05:49.026Z,47.40
2019-04-30T12:08:22.310Z,47.70
2019-04-30T12:10:55.635Z,48.00
2019-04-30T12:13:26.273Z,47.90
2019-04-30T12:15:55.998Z,49.30
2019-04-30T12:18:24.920Z,49.00
2019-04-30T12:20:53.617Z,48.40
2019-04-30T12:23:22.267Z,48.40
2019-04-30T12:25:50.967Z,48.20
2019-04-30T12:28:19.952Z,47.10
2019-04-30T12:30:49.073Z,47.70
2019-04-30T12:33:19.145Z,48.20
2019-04-30T12:35:50.876Z,49.50
2019-04-30T12:38:19.212Z,49.60
2019-04-30T12:40:48.134Z,46.90
2019-04-30T12:43:16.906Z,46.30
2019-04-30T12:45:45.637Z,47.30
2019-04-30T12:48:21.896Z,49.50
2019-04-30T12:50:54.676Z,47.20
2019-04-30T12:53:24.911Z,46.40
2019-04-30T12:56:04.041Z,47.20
2019-04-30T12:58:32.823Z,46.80
2019-04-30T13:01:01.460Z,48.30
2019-04-30T13:03:30.843Z,48.40
2019-04-30T13:06:01.268Z,48.40
2019-04-30T13:08:30.415Z,45.70
2019-04-30T13:10:59.974Z,45.30
2019-04-30T13:13:31.733Z,47.40
2019-04-30T13:16:00.047Z,46.40
2019-04-30T13:18:29.595Z,47.00
2019-04-30T13:20:58.861Z,46.60
2019-04-30T13:23:29.736Z,44.50
2019-04-30T13:25:58.514Z,42.80
2019-04-30T13:28:30.493Z,42.90
2019-04-30T13:30:59.375Z,41.30
2019-04-30T13:33:29.767Z,39.50
2019-04-30T13:35:58.912Z,37.70
2019-04-30T13:38:29.245Z,37.60
2019-04-30T13:41:05.308Z,37.20
2019-04-30T13:43:53.675Z,38.00
2019-04-30T13:46:22.730Z,39.50
2019-04-30T13:48:51.451Z,41.50
2019-04-30T13:51:20.171Z,40.60
2019-04-30T13:53:48.876Z,39.70
2019-04-30T13:56:20.057Z,39.10
2019-04-30T13:58:48.283Z,37.80
2019-04-30T14:01:18.834Z,38.30
2019-04-30T14:03:49.009Z,39.10
2019-04-30T14:06:25.352Z,38.80
2019-04-30T14:08:55.687Z,40.40
2019-04-30T14:11:24.320Z,39.00
2019-04-30T14:13:53.198Z,38.70
2019-04-30T14:16:22.418Z,38.10
2019-04-30T14:18:51.202Z,38.60
2019-04-30T14:21:32.286Z,38.00
2019-04-30T14:23:50.217Z,38.50
2019-04-30T14:26:19.420Z,36.30
2019-04-30T14:28:48.958Z,36.60
2019-04-30T14:31:18.712Z,36.50
2019-04-30T14:33:48.106Z,35.90
2019-04-30T14:36:19.298Z,35.60
2019-04-30T14:38:48.904Z,33.70
2019-04-30T14:41:18.139Z,35.20
2019-04-30T14:44:01.345Z,33.00
2019-04-30T14:46:35.456Z,33.50
2019-04-30T14:49:23.621Z,32.50
2019-04-30T14:51:53.040Z,31.00
2019-04-30T14:54:26.235Z,31.30
2019-04-30T14:57:02.443Z,30.90
2019-04-30T14:59:35.894Z,30.00
2019-04-30T15:02:06.273Z,29.50
2019-04-30T15:04:34.960Z,29.70
2019-04-30T15:07:03.819Z,28.70
2019-04-30T15:09:32.623Z,29.50
2019-04-30T15:12:01.406Z,32.20
2019-04-30T15:14:30.123Z,31.70
2019-04-30T15:16:58.853Z,32.30
2019-04-30T15:19:27.500Z,34.30
2019-04-30T15:21:56.145Z,36.00
2019-04-30T15:24:26.779Z,37.30
2019-04-30T15:26:57.861Z,36.80
2019-04-30T15:29:25.943Z,37.60
2019-04-30T15:31:54.496Z,36.30
2019-04-30T15:34:23.199Z,38.50
2019-04-30T15:36:52.020Z,39.10
2019-04-30T15:39:22.348Z,39.00
2019-04-30T15:41:51.111Z,38.70
2019-04-30T15:44:19.892Z,38.20
2019-04-30T15:46:48.655Z,39.80
2019-04-30T15:49:17.359Z,39.60
2019-04-30T15:51:46.462Z,40.20
2019-04-30T15:54:15.391Z,41.80
2019-04-30T15:56:44.097Z,41.40
2019-04-30T15:59:20.261Z,41.00
2019-04-30T16:02:02.771Z,40.40
2019-04-30T16:04:35.861Z,40.40
2019-04-30T16:07:04.579Z,41.30
2019-04-30T16:09:34.950Z,42.20
2019-04-30T16:12:21.475Z,42.80
2019-04-30T16:14:50.293Z,44.40
2019-04-30T16:17:20.785Z,44.50
2019-04-30T16:19:49.540Z,46.10
2019-04-30T16:22:19.190Z,44.00
2019-04-30T16:24:49.566Z,42.80
2019-04-30T16:27:19.167Z,42.20
2019-04-30T16:29:49.962Z,42.10
2019-04-30T16:32:19.668Z,41.50
2019-04-30T16:34:49.883Z,40.80
2019-04-30T16:37:20.257Z,40.40
2019-04-30T16:39:49.179Z,39.20
2019-04-30T16:42:19.029Z,39.60
2019-04-30T16:44:47.919Z,39.50
2019-04-30T16:47:17.097Z,39.70
2019-04-30T16:49:46.185Z,38.60
2019-04-30T16:52:14.938Z,39.20
2019-04-30T16:54:43.619Z,39.20
2019-04-30T16:57:12.427Z,40.50
2019-04-30T16:59:43.958Z,41.00
2019-04-30T17:02:13.478Z,40.00
2019-04-30T17:04:49.895Z,40.70
2019-04-30T17:07:25.980Z,41.10
2019-04-30T17:10:02.190Z,41.10
2019-04-30T17:12:41.428Z,40.70
2019-04-30T17:15:22.528Z,41.40
2019-04-30T17:17:51.299Z,41.30
2019-04-30T17:20:20.904Z,41.90
2019-04-30T17:22:50.427Z,40.30
2019-04-30T17:25:19.344Z,38.60
2019-04-30T17:27:48.173Z,37.60
2019-04-30T17:30:19.210Z,36.80
2019-04-30T17:32:49.701Z,36.20
2019-04-30T17:35:19.030Z,36.40
2019-04-30T17:37:47.987Z,36.60
2019-04-30T17:40:19.187Z,36.60
2019-04-30T17:42:47.754Z,36.80
2019-04-30T17:45:19.485Z,37.00
2019-04-30T17:47:48.529Z,36.90
2019-04-30T17:50:18.725Z,37.30
2019-04-30T17:52:47.916Z,37.70
2019-04-30T17:55:16.664Z,38.70
2019-04-30T17:57:45.471Z,39.00
2019-04-30T18:00:19.316Z,39.00
2019-04-30T18:02:46.240Z,39.60
2019-04-30T18:05:14.943Z,38.70
2019-04-30T18:07:43.673Z,40.50
2019-04-30T18:10:13.977Z,40.60
2019-04-30T18:12:42.679Z,41.40
2019-04-30T18:15:17.846Z,41.80
2019-04-30T18:17:50.858Z,43.40
2019-04-30T18:20:21.204Z,42.50
2019-04-30T18:22:54.320Z,42.60
2019-04-30T18:25:24.593Z,42.10
2019-04-30T18:28:03.879Z,42.40
2019-04-30T18:30:38.951Z,41.30
2019-04-30T18:33:09.725Z,42.00
2019-04-30T18:35:38.786Z,42.30
2019-04-30T18:38:09.640Z,42.30
2019-04-30T18:40:39.719Z,42.50
2019-04-30T18:43:08.938Z,42.60
2019-04-30T18:45:41.381Z,41.80
2019-04-30T18:48:10.084Z,41.60
2019-04-30T18:50:38.898Z,41.80
2019-04-30T18:53:15.262Z,42.60
2019-04-30T18:55:43.953Z,42.00
2019-04-30T18:58:12.623Z,43.30
2019-04-30T19:00:42.922Z,43.20
2019-04-30T19:03:11.935Z,43.90
2019-04-30T19:05:42.407Z,44.20
2019-04-30T19:08:24.523Z,43.70
2019-04-30T19:13:41.483Z,41.90
2019-04-30T19:16:30.019Z,44.10
2019-04-30T19:19:03.361Z,44.40
2019-04-30T19:21:32.232Z,45.40
2019-04-30T19:24:00.931Z,46.50
2019-04-30T19:26:29.694Z,46.00
2019-04-30T19:28:58.349Z,46.00
2019-04-30T19:31:27.051Z,46.20
2019-04-30T19:33:55.789Z,46.60
2019-04-30T19:36:35.015Z,46.60
2019-04-30T19:38:54.877Z,46.80
2019-04-30T19:41:23.534Z,46.10
2019-04-30T19:43:52.119Z,47.20
2019-04-30T19:46:20.753Z,47.10
2019-04-30T19:48:50.694Z,47.10
2019-04-30T19:51:19.875Z,47.30
2019-04-30T19:53:49.059Z,47.20
2019-04-30T19:56:18.354Z,47.60
2019-04-30T19:58:59.260Z,47.60
2019-04-30T20:01:18.618Z,47.70
2019-04-30T20:03:47.373Z,47.80
2019-04-30T20:06:16.063Z,48.00
2019-04-30T20:08:44.853Z,48.20
2019-04-30T20:11:13.638Z,48.20
2019-04-30T20:13:42.371Z,48.60
2019-04-30T20:16:11.167Z,48.70
2019-04-30T20:18:42.657Z,49.10
2019-04-30T20:21:13.007Z,49.00
2019-04-30T20:23:41.776Z,49.40
2019-04-30T20:26:10.520Z,49.30
2019-04-30T20:28:42.410Z,50.10
2019-04-30T20:31:11.535Z,50.20
2019-04-30T20:33:40.005Z,51.00
2019-04-30T20:36:09.202Z,52.00
2019-04-30T20:38:42.718Z,51.20
2019-04-30T20:41:12.683Z,52.00
2019-04-30T20:43:41.358Z,52.40
2019-04-30T20:46:10.169Z,52.60
2019-04-30T20:48:39.355Z,54.10
2019-04-30T20:51:09.660Z,54.20
2019-04-30T20:53:39.125Z,53.90
2019-04-30T20:56:09.255Z,54.00
2019-04-30T20:58:40.506Z,53.50
2019-04-30T21:01:09.633Z,54.00
2019-04-30T21:03:39.528Z,53.70
2019-04-30T21:06:08.900Z,53.90
2019-04-30T21:08:37.802Z,53.50
2019-04-30T21:11:06.524Z,53.20
2019-04-30T21:13:35.266Z,53.90
2019-04-30T21:16:04.276Z,53.80
2019-04-30T21:18:32.913Z,53.80
2019-04-30T21:21:01.557Z,53.70
2019-04-30T21:23:30.375Z,54.80
2019-04-30T21:25:59.140Z,55.50
2019-04-30T21:28:29.829Z,54.90
2019-04-30T21:33:35.885Z,57.20
2019-04-30T21:36:12.675Z,59.90
2019-04-30T21:38:41.572Z,59.50
2019-04-30T21:41:10.488Z,60.40
2019-04-30T21:43:39.141Z,60.80
2019-04-30T21:46:09.561Z,61.30
2019-04-30T21:48:38.980Z,62.60
2019-04-30T21:51:09.407Z,63.30
2019-04-30T21:53:39.571Z,62.70
2019-04-30T21:56:08.850Z,63.00
2019-04-30T21:58:39.286Z,64.70
2019-04-30T22:01:12.424Z,63.60
2019-04-30T22:03:42.555Z,64.40
2019-04-30T22:06:12.808Z,65.00
2019-04-30T22:08:41.441Z,65.50
2019-04-30T22:11:10.139Z,65.40
2019-04-30T22:13:39.630Z,65.70
2019-04-30T22:16:09.195Z,66.60
2019-04-30T22:18:37.859Z,67.20
2019-04-30T22:21:06.758Z,68.30
2019-04-30T22:23:35.456Z,69.10
2019-04-30T22:26:05.454Z,68.30
2019-04-30T22:28:34.016Z,68.60
2019-04-30T22:31:02.800Z,68.60
2019-04-30T22:33:31.446Z,69.80
2019-04-30T22:36:10.985Z,70.70
2019-04-30T22:38:59.836Z,70.20
2019-04-30T22:41:30.113Z,70.60
2019-04-30T22:43:58.766Z,70.80
2019-04-30T22:46:29.265Z,71.10
2019-04-30T22:48:57.849Z,70.70
2019-04-30T22:51:46.262Z,70.80
2019-04-30T22:54:14.984Z,70.50
2019-04-30T22:56:43.571Z,70.10
2019-04-30T22:59:12.289Z,69.80
2019-04-30T23:01:45.604Z,70.10
2019-04-30T23:04:21.917Z,69.90
2019-04-30T23:06:50.608Z,70.30
2019-04-30T23:09:19.248Z,71.00
2019-04-30T23:11:48.024Z,70.50
2019-04-30T23:14:16.667Z,70.20
2019-04-30T23:16:45.379Z,69.60
2019-04-30T23:19:14.090Z,70.00
2019-04-30T23:21:42.906Z,70.40
2019-04-30T23:24:11.610Z,69.60
2019-04-30T23:26:40.360Z,69.50
2019-04-30T23:29:09.043Z,68.40
2019-04-30T23:31:37.646Z,66.40
2019-04-30T23:34:17.419Z,66.70
2019-04-30T23:36:36.722Z,66.20
2019-04-30T23:39:06.684Z,67.00
2019-04-30T23:41:35.422Z,67.80
2019-04-30T23:44:04.181Z,67.90
2019-04-30T23:46:32.894Z,68.80
2019-04-30T23:49:01.561Z,68.80
2019-04-30T23:51:30.247Z,69.10
2019-04-30T23:53:58.896Z,70.10
2019-04-30T23:56:27.563Z,72.20
2019-04-30T23:58:56.320Z,72.70
